< < Back
Terminal Aerodrome Forecast


Current Version              Previous Versions:   1  2  3  4  5  6  7  8  9  

Terminal Aerodrome Forecast

622
FTUS44 KBMX 221700
TAFTCL
TAF
KTCL 221729Z 2218/2318 27006KT P6SM SCT050
     FM230100 00000KT P6SM SKC
     FM231400 28003KT P6SM SKC=



Latest METAR

733
SAUS70 KWBC 231900 RRC
MTRTCL
METAR KTCL 231853Z 30008KT 7SM CLR 36/17 A2999 RMK AO2 SLP152
T03610172


USA.gov is the U.S. government's official web portal to all federal, state and local government web resources and services.